Atlanta, GA (30314)

12:27 PM EDT on July 29, 2016 (GMT -0400)
Mercedes Benz Stadium | | Change Station

Elev 1047 ft 33.75 °N, 84.40 °W | Updated 9 minutes ago

Mostly Cloudy
Mostly Cloudy
88.5 °F
Feels Like 94 °F
N
5.8
Wind Variable Wind from West

Today
High -- | Low -- °F
--% Chance of Precip.
Yesterday
High -- | Low -- °F
Precip. -- in
Pressure 30.01 in
Visibility 10.0 miles
Clouds Scattered Clouds 3200 ft
Mostly Cloudy 4000 ft
Mostly Cloudy 4800 ft
Heat Index 94 °F
Dew Point 71 °F
Humidity 56%
Rainfall 0.00 in
Snow Depth Not available.
6:47 AM 8:40 PM
Waning Crescent, 21% visible
METAR KFTY 291553Z 31005KT 10SM SCT032 BKN040 BKN048 29/21 A3004 RMK AO2 SLP160 T02940211
Pressure 30.01 in
Visibility 10.0 miles
Clouds Scattered Clouds 3200 ft
Mostly Cloudy 4000 ft
Mostly Cloudy 4800 ft
Heat Index 94 °F
Dew Point 71 °F
Humidity 56%
Rainfall 0.00 in
Snow Depth Not available.
6:47 AM 8:40 PM
Waning Crescent, 21% visible
METAR KFTY 291553Z 31005KT 10SM SCT032 BKN040 BKN048 29/21 A3004 RMK AO2 SLP160 T02940211

10-Day Weather Forecast

Almanac

Astronomy

Jul. 29, 2016 Rise Set
Actual Time
Civil Twilight
Nautical Twilight
Astronomical Twilight
Moon
Length of Visible Light
Length of Day
Tomorrow will be .
, % of the Moon is Illuminated

Today's Extremes

State Highs State Lows

Community

WunderPhotos

Upload Photos

1,928,365 photos uploaded!

WunderBlog® & News

Nearby

Air Quality

  Air Quality AQ Index Pollutant
Not available.

Snow Depth

Station Depth Elevation

Earthquake Activity

City Distance Mag. Time & Date
Minimum magnitude displayed is 2.5.

Coastal Water Temperatures

Place Temperature

Stations

Nearby Weather Stations

Station Location Temp. Windchill Dew Point Humidity Wind Precip. Elev Updated Type
                   

Watches & Warnings

There are currently no watches in effect.